Date,TemperatureHighF,TemperatureAvgF,TemperatureLowF,DewpointHighF,DewpointAvgF,DewpointLowF,HumidityHigh,HumidityAvg,HumidityLow,PressureMaxIn,PressureMinIn,WindSpeedMaxMPH,WindSpeedAvgMPH,GustSpeedMaxMPH,PrecipitationSumIn
2013-1-1,33,22,6,28,14,1,83,72,56,30.02,29.80,14,2,21,0.00
2013-1-2,26,19,7,20,14,3,87,78,65,30.19,29.96,11,2,14,0.00
2013-1-3,28,21,12,25,17,8,90,82,71,30.18,29.94,11,2,19,0.00
2013-1-4,32,30,26,24,22,18,80,72,67,29.97,29.83,19,8,30,0.00
2013-1-5,36,32,29,26,24,21,75,71,63,30.25,29.98,12,2,18,0.01
2013-1-6,37,34,30,32,29,22,91,81,73,30.03,29.84,11,2,16,0.11
2013-1-7,35,28,24,32,22,19,88,77,65,30.36,30.03,8,1,11,0.00
2013-1-8,40,30,24,26,22,17,88,73,59,30.29,30.12,10,1,11,0.02
2013-1-9,48,36,25,35,27,20,86,71,56,30.26,29.91,22,4,30,0.00
2013-1-10,44,38,32,28,27,25,83,66,50,30.55,30.27,15,1,15,0.00
2013-1-11,44,40,34,39,33,25,90,76,53,30.39,29.84,6,2,14,0.13
2013-1-12,57,48,42,49,44,39,93,86,74,29.94,29.89,5,1,12,0.00
2013-1-13,69,56,48,56,50,46,92,83,63,29.91,29.68,19,2,19,0.00
2013-1-14,53,36,28,51,28,18,92,74,64,30.35,29.67,16,4,27,0.02
2013-1-15,34,29,25,22,19,18,76,68,52,30.36,30.15,5,1,8,0.00
2013-1-16,39,32,28,29,24,21,77,72,62,30.14,29.73,16,2,19,0.00
2013-1-17,36,25,16,29,17,10,85,72,61,30.16,29.79,11,2,16,0.00
2013-1-18,29,20,11,16,11,6,87,69,48,30.40,29.99,11,2,14,0.02
2013-1-19,48,40,28,30,23,16,63,51,39,29.99,29.54,17,4,26,0.01
2013-1-20,48,31,17,34,18,7,87,62,41,30.04,29.39,25,8,31,0.02
2013-1-21,21,18,13,14,8,1,77,65,54,30.03,29.84,12,2,14,0.00
2013-1-22,13,10,7,1,-3,-7,73,56,43,30.16,29.86,17,6,21,0.00
2013-1-23,14,10,5,6,1,-5,84,68,50,30.21,30.07,7,1,11,0.00
2013-1-24,13,11,7,8,4,0,84,75,61,30.50,30.05,9,1,13,0.00
2013-1-25,16,12,8,10,5,1,82,74,63,30.48,30.07,5,0,9,0.00
2013-1-26,24,13,0,14,6,-5,86,76,53,30.36,30.07,4,0,6,0.01
2013-1-27,28,21,10,16,13,6,88,73,55,30.54,30.34,5,0,9,0.01
2013-1-28,43,33,23,42,29,16,96,87,68,30.32,29.80,7,1,12,0.22
2013-1-29,53,41,32,53,40,31,100,97,95,30.00,29.69,9,1,12,0.37
2013-1-30,62,57,51,55,51,48,98,81,70,29.68,28.97,14,2,19,0.09
2013-1-31,54,31,22,51,20,8,91,67,43,29.65,28.95,25,9,32,0.12
2013-2-1,22,19,17,15,11,5,85,70,55,30.15,29.65,13,4,22,0.02
2013-2-2,21,17,13,14,9,5,81,71,58,30.15,29.94,9,2,14,0.00
2013-2-3,24,18,12,15,12,8,87,76,59,29.94,29.76,11,1,14,0.00
2013-2-4,22,18,15,12,9,4,77,66,47,29.92,29.81,15,3,16,0.00
2013-2-5,27,22,16,19,14,10,85,72,56,29.93,29.80,5,0,6,0.01
2013-2-6,27,22,12,22,14,7,84,71,50,30.36,29.83,11,2,19,0.01
2013-2-7,29,23,12,22,14,8,84,67,56,30.40,30.05,10,2,13,0.00
2013-2-8,35,28,18,31,24,16,93,83,64,30.05,29.73,4,1,9,0.05
2013-2-9,21,17,5,17,13,0,89,85,81,30.40,30.05,0,0,0,0.00
2013-2-10,34,18,1,26,13,-4,88,79,67,30.39,29.92,5,0,7,0.31
2013-2-11,50,38,32,40,30,25,89,72,62,29.92,29.49,24,6,32,0.27
2013-2-12,35,32,31,30,26,23,92,77,62,29.91,29.64,18,6,24,0.01
2013-2-13,37,30,21,24,22,17,85,71,54,29.86,29.68,4,0,6,0.00
2013-2-14,41,32,21,34,26,17,93,80,55,29.88,29.72,6,1,7,0.08
2013-2-15,38,33,23,34,23,14,93,66,53,30.02,29.72,21,5,23,0.01
2013-2-16,29,23,20,19,16,9,86,72,49,30.02,29.88,6,1,9,0.00
2013-2-17,21,15,12,18,9,1,88,77,60,30.16,29.85,11,2,17,0.00
2013-2-18,29,20,9,17,10,5,83,68,47,30.26,29.87,5,1,12,0.11
2013-2-19,42,33,25,35,24,15,89,70,52,29.87,29.48,20,4,29,0.15
2013-2-20,25,22,19,18,13,8,78,69,53,30.02,29.70,19,8,24,0.00
2013-2-21,22,18,13,15,11,5,83,75,66,30.39,29.99,14,2,16,0.00
2013-2-22,34,27,21,27,21,15,88,78,66,30.36,29.97,11,2,14,0.00
2013-2-23,39,34,31,31,27,23,85,76,71,29.96,29.82,8,2,12,0.05
2013-2-24,33,30,29,28,24,21,90,76,64,30.01,29.80,14,3,15,0.00
2013-2-25,36,32,28,28,26,23,83,76,67,30.19,30.01,8,2,11,0.01
2013-2-26,43,33,22,31,26,19,93,76,53,30.20,29.78,12,2,15,0.28
2013-2-27,35,33,32,34,32,31,95,94,93,29.77,29.52,6,2,12,0.55
2013-2-28,37,34,32,33,31,30,95,91,81,29.67,29.48,11,2,13,0.37
2013-3-1,33,30,25,31,25,18,94,84,72,29.88,29.67,4,0,11,0.06
2013-3-2,27,24,22,22,19,17,85,80,72,29.91,29.83,9,2,11,0.00
2013-3-3,24,23,20,20,17,13,86,79,64,29.86,29.81,11,2,14,0.00
2013-3-4,29,15,22,20,-37,-100,80,36,61,30.00,29.85,255,2,17,0.00
2013-3-5,-200,0,200,-100,-100,-100,0,0,100,30.05,29.89,255,0,0,0.00
2013-3-6,39,19,35,32,-31,-100,85,42,72,30.09,29.87,255,2,12,0.17
2013-3-7,34,1,34,30,-94,-100,86,4,85,30.20,30.08,0,0,0,0.00
2013-3-8,43,25,28,27,-16,-100,85,40,44,30.35,30.19,255,1,14,0.02
2013-3-9,50,26,28,33,-12,-100,92,46,40,30.39,30.18,6,1,6,0.00
2013-3-10,65,26,32,49,-35,-100,75,23,26,30.18,29.89,10,1,15,0.03
2013-3-30,55,55,55,19,19,19,24,24,24,29.90,29.90,3,3,9,0.00
2013-3-31,55,55,55,19,19,19,24,24,24,29.90,29.90,3,3,9,0.00
2013-4-1,55,55,55,19,19,19,24,24,24,29.90,29.90,3,3,9,0.00
2013-4-2,55,55,55,19,19,19,24,24,24,29.90,29.90,3,3,9,0.00
2013-4-3,55,55,55,19,19,19,24,24,24,29.90,29.90,3,3,9,0.00
2013-4-4,44,37,35,24,22,19,62,53,43,29.90,29.85,0,0,8,0.00
2013-4-5,44,38,30,30,23,15,69,54,37,30.10,29.82,12,2,16,0.00
2013-4-6,48,36,21,23,20,17,85,55,32,30.28,29.99,8,1,13,0.00
2013-4-7,69,54,43,47,33,20,69,45,34,29.98,29.63,22,4,38,0.00
2013-4-8,56,45,40,43,36,33,92,72,50,30.06,29.69,11,1,15,0.09
2013-4-9,61,50,43,50,44,40,96,81,53,30.05,29.68,13,2,22,0.69
2013-4-10,46,42,39,45,41,38,97,96,93,29.99,29.82,10,2,18,0.63
2013-4-11,39,35,32,38,32,27,96,89,69,30.09,29.91,13,2,22,0.45
2013-4-12,52,41,34,49,38,31,97,90,77,29.91,29.48,14,4,22,0.82
2013-4-13,45,42,39,38,35,32,85,76,62,29.88,29.71,13,5,30,0.00
2013-4-14,46,40,35,34,29,26,91,67,51,30.14,29.88,10,2,14,0.01
2013-4-15,74,55,35,49,40,26,73,57,37,30.12,29.92,7,1,16,0.00
2013-4-16,64,57,44,58,49,36,94,77,64,30.17,29.89,14,2,21,0.13
2013-4-17,53,45,32,37,33,29,96,65,42,30.30,30.17,10,2,14,0.00
2013-4-18,77,61,45,59,49,33,75,64,52,30.19,29.63,18,3,25,0.00
2013-4-19,73,58,42,59,48,31,82,70,58,29.69,29.30,26,5,36,0.09
2013-4-20,42,38,31,33,27,21,89,64,51,30.36,29.67,20,5,28,0.03
2013-4-21,43,34,24,27,22,12,87,62,40,30.63,30.36,9,1,14,0.00
2013-4-22,61,46,30,33,26,16,72,47,29,30.55,30.28,9,1,15,0.00
2013-4-23,66,52,40,40,34,27,69,50,32,30.28,29.88,8,1,13,0.00
2013-4-24,67,54,39,56,43,35,91,69,52,29.93,29.49,16,3,35,0.13
2013-4-25,56,44,34,38,33,26,91,68,35,30.25,29.94,8,2,16,0.00
2013-4-26,55,45,36,37,32,23,95,63,33,30.41,30.25,8,1,17,0.01
2013-4-27,68,51,37,40,35,29,81,57,31,30.38,30.16,8,1,13,0.00
2013-4-28,75,58,42,48,40,35,82,57,24,30.16,29.96,8,1,17,0.08
2013-4-29,66,58,50,53,49,44,89,74,62,29.98,29.91,7,1,14,0.14
2013-4-30,74,64,56,56,53,50,90,69,47,30.15,29.98,9,2,14,0.01
2013-5-1,79,67,57,51,46,33,76,50,24,30.26,30.15,10,1,13,0.00
2013-5-2,76,64,51,46,38,33,56,40,27,30.34,30.19,9,1,16,0.00
2013-5-3,78,65,51,49,44,40,71,49,33,30.23,30.13,11,1,14,0.00
2013-5-4,72,62,52,46,42,38,73,49,35,30.21,30.07,11,2,16,0.00
2013-5-5,76,61,45,47,43,40,87,55,30,30.14,30.01,10,1,15,0.00
2013-5-6,74,60,47,45,39,32,85,48,23,30.09,29.95,9,2,14,0.00
2013-5-7,76,63,49,55,50,44,93,65,42,30.05,29.94,9,1,16,0.00
2013-5-8,71,61,52,60,55,49,96,81,63,29.98,29.85,7,1,12,0.04
2013-5-9,70,61,56,62,57,53,98,87,66,29.88,29.80,6,1,11,0.63
2013-5-10,74,61,53,63,57,51,97,87,65,29.88,29.65,5,0,10,0.41
2013-5-11,60,53,45,58,50,43,97,89,75,29.71,29.58,11,3,19,0.06
2013-5-12,50,44,38,47,36,31,96,77,53,29.86,29.61,16,6,29,0.11
2013-5-13,49,42,36,35,33,30,87,71,53,30.07,29.86,16,5,22,0.00
2013-5-14,58,45,30,40,33,27,96,68,32,30.11,29.90,8,1,11,0.00
2013-5-15,80,60,46,61,47,37,93,63,43,29.90,29.44,18,3,28,0.16
2013-5-16,75,62,48,49,44,36,88,56,27,29.94,29.66,17,3,27,0.00
2013-5-17,66,53,39,45,40,34,96,67,32,30.16,29.94,7,1,11,0.00
2013-5-18,70,56,40,49,44,39,96,67,41,30.20,30.07,11,2,17,0.00
2013-5-19,82,68,59,63,58,49,84,70,49,30.07,29.90,7,1,12,0.00
2013-5-20,82,71,62,68,62,58,88,75,55,29.96,29.78,8,1,12,0.00
2013-5-21,85,71,61,71,64,59,96,80,60,29.86,29.67,9,1,20,0.09
2013-5-22,88,73,62,70,65,61,98,79,47,29.72,29.56,10,1,27,0.07
2013-5-23,75,66,45,64,58,43,93,78,57,29.82,29.61,15,2,18,0.13
2013-5-24,52,44,39,43,39,37,95,85,61,30.14,29.82,8,2,15,0.30
2013-5-25,58,49,38,39,37,35,92,66,45,30.16,30.08,14,2,19,0.00
2013-5-26,62,52,43,39,37,32,81,57,35,30.15,30.07,14,2,18,0.00
2013-5-27,71,56,39,47,40,34,92,59,29,30.21,30.07,7,1,13,0.00
2013-5-28,63,56,49,60,52,42,97,86,65,30.09,29.87,3,0,8,0.88
2013-5-29,80,70,60,68,63,59,99,80,56,29.94,29.82,18,3,26,0.99
2013-5-30,87,74,61,68,63,58,96,71,38,30.03,29.94,10,2,15,0.00
2013-5-31,88,77,66,72,66,62,94,71,42,29.99,29.84,10,1,15,0.00
2013-6-1,88,75,68,70,66,62,97,75,50,29.88,29.68,11,2,25,0.39
2013-6-2,75,69,58,68,63,52,98,82,57,29.81,29.61,18,4,29,0.44
2013-6-3,63,56,50,52,46,41,86,70,47,29.95,29.81,10,2,17,0.00
2013-6-4,66,56,47,46,43,38,90,64,36,30.10,29.95,7,1,12,0.00
2013-6-5,67,57,47,53,45,40,91,67,43,30.16,30.02,13,2,15,0.00
2013-6-6,59,56,53,58,53,44,97,90,62,30.02,29.77,9,2,11,1.41
2013-6-7,62,58,55,59,57,54,99,96,89,29.79,29.73,4,0,8,0.06
2013-6-8,64,59,55,60,56,53,100,91,78,30.00,29.74,6,1,10,0.02
2013-6-9,74,64,54,60,55,51,90,74,55,30.13,30.00,8,2,10,0.00
2013-6-10,71,65,59,65,61,56,97,87,74,30.05,29.63,9,1,11,0.11
2013-6-11,68,64,58,65,61,55,98,91,78,29.77,29.56,12,2,14,0.19
2013-6-12,75,64,51,60,55,50,99,75,45,29.86,29.70,5,1,11,0.00
2013-6-13,66,60,54,60,57,54,97,90,77,29.71,29.44,16,3,24,1.39
2013-6-14,73,63,53,62,57,52,99,83,59,29.91,29.71,8,1,14,0.00
2013-6-15,74,64,51,57,52,45,96,69,37,29.98,29.87,7,2,13,0.00
2013-6-16,76,66,60,67,60,54,96,83,71,29.87,29.63,8,2,17,0.23
2013-6-17,77,68,58,65,61,57,97,78,57,29.86,29.75,10,2,14,0.00
2013-6-18,68,60,51,58,52,48,97,78,50,29.95,29.82,11,2,15,0.03
2013-6-19,66,58,46,51,46,40,95,68,38,30.13,29.95,9,1,14,0.00
2013-6-20,74,59,43,54,47,42,97,70,36,30.19,30.13,7,1,14,0.00
2013-6-21,80,65,49,58,53,46,96,69,31,30.21,30.10,7,1,11,0.00
2013-6-22,85,74,57,72,64,55,93,74,53,30.10,29.92,6,1,14,0.00
2013-6-23,88,79,70,73,69,65,93,73,51,29.98,29.91,10,2,16,0.02
2013-6-24,85,77,68,71,66,63,92,71,51,29.95,29.85,15,3,18,0.00
2013-6-25,81,74,68,72,67,64,90,78,65,29.86,29.71,13,2,18,0.02
2013-6-26,83,74,66,70,67,63,90,78,61,29.74,29.69,10,3,14,0.00
2013-6-27,78,70,63,73,67,62,97,89,76,29.73,29.56,3,0,9,0.20
2013-6-28,67,64,61,66,63,60,98,97,96,29.55,29.43,8,1,11,0.75
2013-6-29,76,66,61,68,63,61,99,91,68,29.63,29.43,5,0,11,0.63
2013-6-30,76,67,58,68,62,58,99,86,69,29.85,29.62,7,1,13,0.00
2013-7-1,66,64,60,64,62,59,97,93,85,29.98,29.85,13,3,16,0.34
2013-7-2,75,66,60,71,64,58,98,93,81,30.03,29.94,10,1,14,0.05
2013-7-3,83,72,65,75,69,64,100,92,65,30.07,30.00,6,0,9,0.96
2013-7-4,84,74,68,74,71,68,99,89,61,30.09,30.02,6,1,10,0.04
2013-7-5,83,74,69,76,71,68,98,88,70,30.06,29.97,7,1,14,0.99
2013-7-6,84,74,67,73,68,65,96,82,56,30.07,29.95,4,0,8,0.00
2013-7-7,81,75,70,72,69,66,98,82,67,29.98,29.85,8,2,14,0.01
2013-7-8,83,74,69,73,69,66,97,85,64,29.96,29.89,7,1,10,0.11
2013-7-9,81,74,69,74,70,67,98,89,70,29.96,29.82,6,0,12,0.04
2013-7-10,84,77,70,75,70,64,97,82,66,29.82,29.61,13,3,21,0.00
2013-7-11,77,69,60,66,60,57,96,76,56,29.94,29.74,9,1,13,0.00
2013-7-12,74,66,59,67,62,58,98,88,69,30.11,29.94,6,1,13,0.00
2013-7-13,81,70,59,72,66,58,99,87,70,30.17,30.09,6,0,11,0.00
2013-7-14,87,76,67,76,70,66,99,83,60,30.22,30.16,6,0,8,0.00
2013-7-15,88,78,68,76,71,65,96,80,51,30.21,30.14,5,0,10,0.00
2013-7-16,89,78,67,74,69,65,98,77,49,30.20,30.12,5,0,10,0.00
2013-7-17,91,81,71,80,74,69,96,79,54,30.14,29.99,8,2,15,0.00
2013-7-18,89,82,75,78,75,72,96,80,63,30.01,29.86,9,2,14,0.00
2013-7-19,91,81,69,76,71,65,94,74,51,29.86,29.62,16,4,28,0.03
2013-7-20,80,72,65,70,66,59,98,84,49,29.81,29.62,12,2,16,0.01
2013-7-21,74,67,59,64,61,58,98,82,63,29.94,29.81,7,1,14,0.00
2013-7-22,78,68,57,68,62,56,98,83,56,29.93,29.71,8,1,10,0.00
2013-7-23,83,73,66,70,66,58,98,81,54,29.70,29.53,13,1,18,0.01
2013-7-24,67,61,52,59,53,49,96,75,54,29.98,29.62,9,2,13,0.00
2013-7-25,72,60,48,57,52,47,98,75,45,30.06,29.98,9,1,15,0.00
2013-7-26,75,62,49,60,54,48,98,76,48,30.06,29.94,6,1,10,0.00
2013-7-27,79,68,56,66,61,53,96,81,61,29.94,29.75,6,0,13,0.01
2013-7-28,75,66,58,66,62,56,97,87,61,29.91,29.73,5,0,11,0.00
2013-7-29,70,63,55,59,56,53,96,79,60,30.06,29.90,8,2,15,0.00
2013-7-30,75,65,56,64,58,54,96,81,55,30.13,30.06,7,1,12,0.00
2013-7-31,79,66,55,65,60,54,98,82,51,30.09,29.86,5,0,7,0.00
2013-8-1,77,68,62,70,64,61,98,87,63,29.86,29.70,9,1,16,0.03
2013-8-2,74,65,57,67,61,56,99,86,56,29.82,29.75,9,1,13,0.14
2013-8-3,75,67,60,62,59,54,98,79,51,29.85,29.75,8,2,13,0.16
2013-8-4,71,63,54,60,56,52,95,78,54,29.99,29.86,10,2,14,0.00
2013-8-5,74,61,49,60,54,48,98,80,48,30.05,29.95,7,0,9,0.00
2013-8-6,79,65,52,62,57,52,98,78,45,29.99,29.91,5,0,9,0.00
2013-8-7,82,72,64,68,64,60,89,76,63,29.92,29.79,7,1,16,0.01
2013-8-8,83,73,66,73,69,64,98,88,69,29.88,29.82,9,1,14,0.32
2013-8-9,78,70,65,70,66,61,100,89,62,29.84,29.77,6,1,12,1.18
2013-8-10,72,65,54,62,57,52,97,78,51,30.02,29.85,9,2,13,0.00
2013-8-11,75,62,50,60,55,50,99,80,48,30.06,29.96,5,0,10,0.00
2013-8-12,77,68,60,65,61,58,95,81,54,29.98,29.78,5,0,9,0.00
2013-8-13,71,65,58,68,60,49,99,84,61,29.79,29.67,11,2,19,0.74
2013-8-14,68,59,53,56,52,49,96,78,53,30.01,29.77,16,2,17,0.03
2013-8-15,73,61,50,56,52,48,95,73,47,30.07,30.00,7,2,15,0.00
2013-8-16,75,62,50,61,55,49,98,80,51,30.14,30.04,5,0,9,0.00
2013-8-17,78,67,54,62,58,53,98,76,44,30.23,30.14,8,1,9,0.00
2013-8-18,79,66,56,64,59,54,97,80,49,30.18,30.03,6,0,7,0.00
2013-8-19,80,68,56,67,61,55,99,81,52,30.05,29.95,5,0,8,0.00
2013-8-20,82,70,57,66,62,56,98,78,49,30.05,29.98,10,1,11,0.00
2013-8-21,84,71,60,68,63,58,97,77,47,30.08,29.94,7,1,10,0.00
2013-8-22,82,72,63,72,66,58,95,82,68,29.95,29.82,10,2,19,0.00
2013-8-23,72,64,54,60,57,52,98,80,51,30.14,29.91,7,1,13,0.00
2013-8-24,75,61,49,59,52,48,99,77,39,30.29,30.14,8,1,11,0.00
2013-8-25,81,66,51,63,56,50,98,72,41,30.27,30.05,9,1,13,0.01
2013-8-26,77,69,64,70,66,62,97,90,77,30.07,29.84,10,2,17,0.63
2013-8-27,82,72,67,74,70,66,100,93,74,29.86,29.79,4,1,10,0.00
2013-8-28,82,74,67,74,70,67,100,91,74,29.87,29.77,7,1,13,0.87
2013-8-29,82,72,64,73,68,64,100,89,68,29.97,29.87,5,0,11,0.00
2013-8-30,82,72,62,73,67,62,100,86,64,29.93,29.68,5,0,9,0.00
2013-8-31,80,73,66,72,69,65,98,88,74,29.77,29.63,8,1,12,0.02
2013-9-1,78,71,64,71,68,64,100,92,77,29.77,29.68,8,1,11,0.03
2013-9-2,81,71,64,73,67,58,99,88,68,29.72,29.59,8,1,16,0.01
2013-9-3,66,63,60,60,58,56,91,84,77,29.86,29.70,9,2,15,0.00
2013-9-4,76,65,51,64,57,50,99,77,43,29.92,29.86,11,3,16,0.20
2013-9-5,64,57,45,62,50,42,99,81,49,30.16,29.90,8,1,14,0.01
2013-9-6,69,55,42,54,47,41,98,77,44,30.23,30.03,4,0,8,0.00
2013-9-7,64,59,51,62,55,49,95,89,80,30.03,29.80,8,1,13,0.09
2013-9-8,66,60,47,65,53,44,97,79,49,30.04,29.78,11,2,16,0.06
2013-9-9,75,58,45,65,53,44,98,82,57,30.09,29.89,5,0,11,0.00
2013-9-10,89,77,66,77,70,62,96,81,64,29.91,29.82,10,2,16,0.18
2013-9-11,90,80,73,75,72,66,93,77,58,29.94,29.81,9,1,16,0.00
2013-9-12,74,68,59,69,66,57,97,91,81,29.84,29.64,7,1,12,0.11
2013-9-13,60,54,50,58,52,48,97,94,86,29.95,29.67,7,1,14,0.24
2013-9-14,61,51,45,50,46,42,97,83,53,30.06,29.94,9,1,13,0.01
2013-9-15,67,55,43,56,49,42,96,82,60,30.10,29.99,7,1,9,0.08
2013-9-16,55,50,42,54,48,41,99,94,78,30.31,30.00,13,1,16,0.07
2013-9-17,64,49,36,49,43,35,99,81,45,30.44,30.24,8,0,11,0.01
2013-9-18,73,55,43,54,46,41,97,77,33,30.23,30.04,7,0,10,0.00
2013-9-19,77,61,48,63,54,47,98,81,46,30.06,29.94,5,0,8,0.00
2013-9-20,84,68,54,67,61,54,98,79,55,29.95,29.69,9,1,12,0.00
2013-9-21,71,63,53,62,60,52,98,90,72,29.69,29.55,12,1,17,0.94
2013-9-22,56,51,49,52,46,43,96,83,64,29.96,29.66,11,2,16,0.00
2013-9-23,58,50,40,46,44,40,97,80,55,30.10,29.96,8,1,12,0.00
2013-9-24,64,50,39,50,44,38,99,83,50,30.09,29.95,6,1,11,0.00
2013-9-25,67,51,39,55,46,38,98,83,50,29.96,29.90,6,1,11,0.00
2013-9-26,68,53,39,58,49,39,99,87,63,30.09,29.94,8,1,11,0.00
2013-9-27,66,53,44,58,50,43,99,90,71,30.20,30.09,8,1,10,0.00
2013-9-28,73,57,43,61,52,43,99,85,55,30.24,30.11,6,0,9,0.00
2013-9-29,75,59,46,58,52,45,98,79,47,30.11,29.92,4,0,10,0.00
2013-9-30,75,63,55,63,57,51,95,81,61,29.95,29.86,5,0,7,0.00
2013-10-1,74,65,55,62,58,55,99,80,53,29.95,29.83,7,1,13,0.00
2013-10-2,76,66,55,64,60,53,97,81,47,30.01,29.83,12,2,13,0.00
2013-10-3,71,58,44,58,50,43,99,80,37,30.07,29.95,3,0,7,0.00
2013-10-4,65,62,58,65,60,54,99,95,82,30.00,29.92,5,0,9,0.28
2013-10-5,62,60,58,60,58,56,97,93,86,30.03,29.97,10,1,12,0.12
2013-10-6,82,68,59,73,65,58,99,91,69,29.97,29.65,6,0,13,0.47
2013-10-7,74,60,50,66,55,47,97,84,72,29.96,29.55,12,3,25,0.74
2013-10-8,63,51,42,50,45,41,98,82,49,30.29,29.97,5,1,11,0.00
2013-10-9,67,51,38,52,45,38,99,84,49,30.35,30.22,7,0,10,0.00
2013-10-10,66,50,39,49,44,38,97,81,43,30.22,30.10,7,0,10,0.00
2013-10-11,68,51,41,54,47,40,99,86,53,30.11,30.06,9,1,13,0.00
2013-10-12,74,55,39,53,44,39,99,72,35,30.13,30.07,10,1,13,0.00
2013-10-13,69,61,49,62,54,44,98,80,65,30.20,30.12,4,1,11,0.11
2013-10-14,63,55,43,59,52,42,98,89,64,30.27,30.18,4,1,11,0.12
2013-10-15,68,53,39,58,50,39,99,89,68,30.22,29.89,5,0,11,0.00
2013-10-16,65,61,57,59,55,51,95,83,71,29.89,29.68,8,2,12,0.27
2013-10-17,62,55,46,54,50,44,97,86,65,29.81,29.60,7,1,10,0.39
2013-10-18,60,52,48,51,45,39,97,77,48,29.84,29.65,16,3,20,0.02
2013-10-19,62,53,43,49,45,41,92,75,52,29.83,29.56,12,2,18,0.07
2013-10-20,53,46,39,45,41,37,94,83,63,29.92,29.68,13,2,14,0.00
2013-10-21,67,55,44,49,42,38,93,65,36,29.92,29.72,9,2,16,0.00
2013-10-22,52,45,35,48,37,28,96,75,49,29.79,29.67,13,3,26,0.28
2013-10-23,45,39,34,39,35,30,96,87,75,29.76,29.64,5,1,11,0.03
2013-10-24,48,39,33,38,34,31,95,81,53,29.95,29.73,15,3,24,0.25
2013-10-25,48,40,34,42,36,33,97,86,64,30.13,29.95,10,2,18,0.02
2013-10-26,46,42,38,37,34,29,93,73,53,30.07,29.72,12,4,26,0.02
2013-10-27,47,42,36,39,36,34,94,81,63,30.00,29.75,8,2,15,0.01
2013-10-28,48,40,27,40,32,24,92,74,40,30.34,29.97,7,1,14,0.00
2013-10-29,45,35,24,34,28,22,94,77,51,30.43,30.25,8,1,9,0.00
2013-10-30,56,44,37,43,39,34,97,84,57,30.25,30.04,6,0,8,0.06
2013-10-31,68,55,42,61,51,39,98,87,70,30.04,29.30,11,1,17,0.47
2013-11-1,63,57,48,59,50,44,95,80,63,29.60,29.12,14,6,40,0.27
2013-11-2,50,45,37,46,43,34,97,93,82,29.93,29.53,8,1,19,0.33
2013-11-3,38,33,25,34,26,23,91,76,57,30.48,29.94,9,1,15,0.01
2013-11-4,42,33,22,27,23,19,94,69,41,30.61,30.39,8,1,15,0.00
2013-11-5,57,46,36,37,30,20,66,53,45,30.42,30.27,8,1,12,0.00
2013-11-6,65,56,46,56,45,34,95,68,56,30.27,29.72,9,2,17,0.06
2013-11-7,58,44,38,56,38,31,94,79,61,29.92,29.71,9,3,19,0.17
2013-11-8,43,38,35,34,31,27,89,74,55,30.17,29.89,10,3,29,0.04
2013-11-9,50,42,33,44,33,29,93,73,56,30.16,29.71,7,1,16,0.04
2013-11-10,50,44,39,44,37,32,92,77,65,30.09,29.71,14,5,26,0.09
2013-11-11,45,37,30,38,32,28,95,84,61,30.10,29.86,12,2,22,0.39
2013-11-12,33,28,24,28,23,20,94,80,69,30.34,30.06,9,2,16,0.12
2013-11-13,38,29,15,29,21,13,93,75,55,30.38,30.01,14,3,23,0.05
2013-11-14,49,42,35,28,22,18,65,46,32,30.05,29.94,18,6,33,0.01
2013-11-15,52,44,36,31,25,20,65,48,36,30.06,29.98,10,1,14,0.00
2013-11-16,59,49,37,42,35,26,71,58,46,30.18,29.97,5,0,9,0.00
2013-11-17,61,56,52,55,50,42,92,81,69,29.97,29.29,11,3,22,0.17
2013-11-18,55,47,36,49,37,28,84,69,60,29.82,29.31,26,9,38,0.03
2013-11-19,37,34,24,30,27,22,90,74,62,30.40,29.82,13,3,25,0.00
2013-11-20,38,29,20,25,22,18,93,76,51,30.56,30.40,5,0,10,0.00
2013-11-21,44,38,31,38,27,17,91,63,50,30.41,30.20,12,2,15,0.02
2013-11-22,47,42,33,47,40,28,98,94,80,30.20,29.92,14,2,21,0.29
2013-11-23,36,28,19,28,22,11,92,79,59,30.14,29.94,13,4,25,0.00
2013-11-24,24,20,17,17,14,11,87,78,62,30.36,30.12,16,4,20,0.00
2013-11-25,35,28,17,24,16,9,86,64,39,30.35,30.05,13,2,19,0.01
2013-11-26,36,34,32,32,29,24,97,82,68,30.09,29.76,9,1,18,0.00
2013-11-27,34,30,22,32,28,19,98,92,80,29.84,29.57,11,2,20,0.02
2013-11-28,28,22,15,19,17,12,92,80,60,30.38,29.85,10,2,16,0.07
2013-11-29,29,20,8,21,15,6,94,82,56,30.70,30.38,7,0,9,0.16
2013-11-30,32,22,8,24,16,5,91,79,64,30.69,30.15,8,1,15,0.00
2013-12-1,38,34,30,34,29,24,95,83,70,30.15,29.91,6,0,9,0.25
2013-12-2,40,36,30,34,33,29,96,89,78,29.91,29.80,2,0,4,0.07
2013-12-3,40,32,26,31,28,25,97,87,63,29.96,29.85,5,0,8,0.01
2013-12-4,49,39,32,40,35,29,94,87,72,29.98,29.83,4,0,7,0.01
2013-12-5,61,50,40,54,44,34,88,81,62,29.94,29.67,15,3,26,0.00
2013-12-6,39,34,31,35,29,24,94,81,71,30.19,29.94,7,2,12,0.12
2013-12-7,31,28,24,26,20,15,84,72,55,30.51,30.18,9,4,16,0.00
2013-12-8,29,25,19,23,16,13,90,70,54,30.53,30.17,9,1,13,0.00
2013-12-9,39,34,27,36,30,23,93,84,71,30.16,29.80,18,4,29,0.10
2013-12-10,33,25,19,26,16,10,92,71,57,29.99,29.85,13,4,22,0.00
2013-12-11,25,21,13,20,14,8,90,73,58,30.22,29.99,18,4,25,0.00
2013-12-12,20,15,10,15,10,5,90,79,59,30.28,29.99,12,3,24,0.00
2013-12-13,23,18,10,20,13,6,90,79,67,30.35,29.98,15,3,28,0.00
2013-12-14,22,14,10,21,11,6,93,87,82,30.41,29.71,10,2,16,0.00
2013-12-15,25,22,19,23,19,13,94,89,73,29.80,29.56,11,2,20,0.00
2013-12-16,23,13,-2,15,9,-5,88,82,67,30.14,29.80,14,2,24,0.00
2013-12-17,27,16,-3,25,14,-6,93,89,81,30.12,29.87,7,0,12,0.00
2013-12-18,32,28,22,25,22,20,94,80,66,30.01,29.88,8,2,14,0.00
2013-12-19,42,35,26,33,28,19,90,75,61,29.99,29.83,11,2,20,0.37
2013-12-20,42,38,34,41,36,33,98,96,89,29.95,29.73,1,0,5,0.28
2013-12-21,48,37,31,48,37,31,99,98,97,29.84,29.66,7,1,18,0.82
2013-12-22,43,35,32,42,34,31,99,97,89,29.91,29.54,11,1,18,0.99
2013-12-23,40,35,26,38,32,21,92,89,83,30.20,29.89,6,1,16,0.00
2013-12-24,25,20,12,23,17,9,94,89,84,30.45,30.15,7,1,14,0.00
2013-12-25,25,14,1,17,9,-2,93,81,69,30.49,30.17,4,0,11,0.00
2013-12-26,32,27,23,28,21,16,92,78,71,30.23,30.02,10,2,16,0.04
2013-12-27,32,27,20,28,23,14,93,84,73,30.23,30.03,9,1,14,0.00
2013-12-28,43,37,29,35,31,26,93,79,63,30.03,29.88,10,3,20,0.03
2013-12-29,45,39,28,39,34,26,95,80,58,29.87,29.56,9,1,16,0.05
2013-12-30,28,18,12,26,14,9,91,84,73,30.17,29.70,11,2,19,0.00
2013-12-31,24,18,14,20,11,4,88,75,61,30.18,29.92,16,4,25,0.00
2014-1-1,21,17,15,14,11,8,91,77,62,30.36,30.18,8,2,13,0.00
2014-1-2,15,11,5,13,9,2,91,90,89,30.26,29.95,14,5,22,0.00